createdAt,value
2023-01-03T00:04:02.453Z,16.10
2023-01-03T00:14:09.583Z,20.10
2023-01-03T00:24:15.971Z,17.00
2023-01-03T00:34:22.521Z,15.50
2023-01-03T00:44:28.800Z,16.80
2023-01-03T00:54:35.130Z,16.50
2023-01-03T01:04:41.455Z,16.60
2023-01-03T01:14:47.798Z,17.70
2023-01-03T01:24:54.057Z,15.50
2023-01-03T01:35:00.388Z,17.00
2023-01-03T01:45:15.182Z,17.20
2023-01-03T01:55:29.921Z,17.00
2023-01-03T02:05:38.407Z,16.70
2023-01-03T02:15:59.062Z,17.70
2023-01-03T02:26:39.782Z,16.70
2023-01-03T02:37:03.587Z,14.20
2023-01-03T02:47:13.820Z,13.80
2023-01-03T02:57:24.333Z,14.10
2023-01-03T03:07:34.383Z,14.20
2023-01-03T03:17:42.574Z,13.90
2023-01-03T03:28:09.244Z,13.70
2023-01-03T03:38:17.728Z,14.00
2023-01-03T03:48:59.345Z,14.00
2023-01-03T03:59:08.477Z,14.10
2023-01-03T04:09:15.622Z,15.00
2023-01-03T04:19:21.945Z,14.60
2023-01-03T04:29:28.315Z,15.40
2023-01-03T04:39:34.708Z,15.50
2023-01-03T04:49:41.030Z,16.50
2023-01-03T04:59:47.944Z,18.10
2023-01-03T05:09:54.203Z,19.20
2023-01-03T05:20:18.984Z,18.00
2023-01-03T05:30:25.776Z,17.60
2023-01-03T05:40:37.667Z,18.20
2023-01-03T05:50:47.956Z,17.90
2023-01-03T06:00:54.376Z,17.70
2023-01-03T06:11:00.722Z,19.10
2023-01-03T06:21:07.395Z,19.50
2023-01-03T06:31:14.007Z,19.50
2023-01-03T06:41:20.540Z,19.90
2023-01-03T06:51:46.435Z,18.40
2023-01-03T07:01:53.968Z,18.10
2023-01-03T07:12:20.270Z,17.80
2023-01-03T07:22:26.640Z,17.80
2023-01-03T07:32:32.957Z,18.40
2023-01-03T07:42:57.674Z,19.10
2023-01-03T07:53:04.235Z,16.80
2023-01-03T08:03:11.993Z,17.30
2023-01-03T08:13:21.270Z,18.60
2023-01-03T08:23:27.945Z,22.40
2023-01-03T08:33:39.550Z,21.30
2023-01-03T08:43:47.943Z,17.50
2023-01-03T08:53:54.493Z,14.20
2023-01-03T09:04:00.922Z,12.50
2023-01-03T09:14:07.708Z,11.20
2023-01-03T09:24:14.010Z,11.40
2023-01-03T09:34:20.529Z,11.40
2023-01-03T09:44:26.852Z,11.80
2023-01-03T09:55:10.512Z,10.80
2023-01-03T10:06:00.640Z,11.30
2023-01-03T10:16:16.996Z,11.25
2023-01-03T10:26:32.543Z,10.70
2023-01-03T10:36:39.188Z,10.10
2023-01-03T10:46:51.586Z,11.30
2023-01-03T10:56:58.258Z,10.20
2023-01-03T11:07:11.278Z,11.20
2023-01-03T11:17:20.535Z,12.00
2023-01-03T11:28:01.737Z,9.40
2023-01-03T11:38:20.870Z,11.90
2023-01-03T11:48:42.593Z,9.40
2023-01-03T11:58:57.528Z,8.50
2023-01-03T12:09:22.694Z,8.70
2023-01-03T12:19:36.398Z,8.00
2023-01-03T12:30:16.569Z,9.80
2023-01-03T12:40:59.777Z,8.80
2023-01-03T12:51:06.208Z,8.70
2023-01-03T13:01:16.812Z,7.90
2023-01-03T13:11:27.521Z,14.80
2023-01-03T13:21:55.921Z,7.50
2023-01-03T13:32:19.498Z,7.80
2023-01-03T13:42:33.338Z,7.00
2023-01-03T13:52:57.214Z,10.50
2023-01-03T14:03:28.488Z,8.00
2023-01-03T14:13:42.836Z,7.60
2023-01-03T14:23:59.611Z,6.60
2023-01-03T14:34:09.109Z,5.80
2023-01-03T14:44:15.351Z,5.70
2023-01-03T14:54:22.031Z,6.00
2023-01-03T15:04:28.535Z,9.40
2023-01-03T15:14:37.592Z,10.80
2023-01-03T15:24:46.295Z,12.10
2023-01-03T15:34:52.690Z,11.90
2023-01-03T15:44:59.398Z,11.30
2023-01-03T15:55:06.730Z,10.60
2023-01-03T16:05:22.026Z,8.30
2023-01-03T16:15:29.612Z,12.80
2023-01-03T16:25:35.920Z,11.30
2023-01-03T16:35:42.227Z,15.60
2023-01-03T16:45:48.951Z,12.80
2023-01-03T16:55:57.377Z,25.30
2023-01-03T17:06:03.860Z,27.40
2023-01-03T17:16:22.385Z,27.60
2023-01-03T17:26:29.007Z,28.60
2023-01-03T17:36:35.642Z,27.80
2023-01-03T17:47:00.587Z,31.30
2023-01-03T17:57:06.590Z,32.80
2023-01-03T18:07:17.212Z,34.10
2023-01-03T18:17:34.235Z,46.50
2023-01-03T18:27:40.506Z,35.70
2023-01-03T18:37:47.315Z,77.60
2023-01-03T18:47:53.589Z,45.60
2023-01-03T18:58:07.703Z,40.20
2023-01-03T19:08:14.303Z,43.20
2023-01-03T19:18:20.918Z,61.00
2023-01-03T19:28:29.923Z,44.90
2023-01-03T19:38:36.286Z,46.20
2023-01-03T19:48:42.607Z,43.30
2023-01-03T19:58:49.842Z,29.20
2023-01-03T20:08:56.173Z,25.60
2023-01-03T20:19:03.881Z,24.40
2023-01-03T20:29:11.127Z,25.70
2023-01-03T20:39:26.427Z,25.50
2023-01-03T20:49:32.752Z,32.20
2023-01-03T20:59:39.108Z,28.70
2023-01-03T21:09:45.389Z,39.30
2023-01-03T21:19:51.729Z,46.50
2023-01-03T21:29:58.036Z,50.90
2023-01-03T21:40:04.406Z,45.70
2023-01-03T21:50:12.019Z,42.70
2023-01-03T22:00:19.803Z,40.10
2023-01-03T22:10:26.355Z,42.50
2023-01-03T22:20:38.147Z,42.60
2023-01-03T22:30:45.148Z,46.80
2023-01-03T22:40:51.490Z,50.40
2023-01-03T22:50:57.790Z,44.10
2023-01-03T23:01:11.045Z,50.10
2023-01-03T23:11:37.034Z,49.80
2023-01-03T23:21:43.593Z,45.90
2023-01-03T23:31:49.911Z,43.60
2023-01-03T23:41:56.351Z,48.00
2023-01-03T23:52:02.665Z,34.20
